SCC: Laguna Seca: GS final practice times

Pos Num Class Team Time Gap To 1st Speed --- --- ----- ------------------------------ ---------- ------- ------- ------- 1. 96 GS Turner Motorsport 1:35.962 83.958 2. 49...

Pos Num Class Team                                 Time     Gap  To 1st   Speed
--- --- ----- ------------------------------ ---------- ------- ------- -------
 1.  96 GS    Turner Motorsport                1:35.962                  83.958
 2.  49 GS    Marcus Motorsports               1:36.532   0.570   0.570  83.462
 3.  60 GS    Horsepower Ranch                 1:36.932   0.400   0.970  83.118
 4.  55 GS    Hyper Sport                      1:37.266   0.334   1.304  82.833
 5.   5 GS    Blackforest Motorsports          1:37.560   0.294   1.598  82.583
 6.  46 GS    Fall-Line Motorsports            1:37.653   0.093   1.691  82.504
 7.  79 GS    Kinetic Motorsports              1:37.666   0.013   1.704  82.493
 8.  38 GS    BGB Motorsports                  1:37.810   0.144   1.848  82.372
 9.  09 GS    Automatic Racing                 1:37.832   0.022   1.870  82.353
10.  33 GS    Playboy Racing                   1:38.027   0.195   2.065  82.190
11.  41 GS    TRG                              1:38.249   0.222   2.287  82.004
12.  40 GS    TRG                              1:38.267   0.018   2.305  81.989
13.  25 GS    Fiorano/C-MAX Racing             1:38.335   0.068   2.373  81.932
14.  37 GS    JBS Racing                       1:38.401   0.066   2.439  81.877
15.  97 GS    Turner Motorsport                1:38.458   0.057   2.496  81.830
16.  20 GS    Horsepower Ranch                 1:38.461   0.003   2.499  81.827
17.  42 GS    TRG                              1:38.542   0.081   2.580  81.760
18.  83 GS    BGB Motorsports                  1:38.609   0.067   2.647  81.705
19.  90 GS    Automatic Racing                 1:38.726   0.117   2.764  81.608
20.  91 GS    Automatic Racing                 1:38.800   0.074   2.838  81.547
21.  77 GS    Blackforest Motorsports          1:38.852   0.052   2.890  81.504
22. 154 GS    Jim Click Racing                 1:38.918   0.066   2.956  81.449
23.  80 GS    Kinetic Motorsports              1:38.942   0.024   2.980  81.430
24. 137 GS    JBS Motorsports                  1:39.226   0.284   3.264  81.196
25.   4 GS    Blackforest Motorsports          1:39.263   0.037   3.301  81.166
26.  88 GS    LNS Motorsport                   1:39.476   0.213   3.514  80.992
27.  87 GS    LNS Motorsport                   1:39.663   0.187   3.701  80.840
28.  17 GS    Team Centurion                   1:39.943   0.280   3.981  80.614
29.  26 GS    Fiorano/C-MAX Racing             1:40.041   0.098   4.079  80.535
30.  59 GS    Rehagen Racing                   1:40.111   0.070   4.149  80.479
31.  39 GS    TRG                              1:40.194   0.083   4.232  80.412
32.  78 GS    Kinetic Motorsports              1:40.245   0.051   4.283  80.371
33.  89 GS    LNS Motorsport                   1:40.855   0.610   4.893  79.885
34. 150 GS    Jim Click Racing                 1:41.267   0.412   5.305  79.560
35.  54 GS    Hyper Sport                      1:41.456   0.189   5.494  79.412
36.  52 GS    Rehagen Racing                   1:41.656   0.200   5.694  79.256
37.  43 GS    ASC Motorsports                  1:42.093   0.437   6.131  78.916
38.  11 GS    Southwest Racers Group           1:43.408   1.315   7.446  77.913
39.  36 GS    NoHotWire Racing                 1:44.093   0.685   8.131  77.400
40.  99 GS    Automatic Racing                 1:46.636   2.543  10.674  75.554
41.   6 GS    Blackforest Motorsports           No Time

Write a comment
Show comments
About this article
Series Grand-Am
Drivers Jim Click
Teams Kinetic Motorsports , Rehagen Racing , Turner Motorsport , Automatic Racing , Fall-Line Motorsports